Time;durP1;ratioP1;P1;durP2;ratioP2;P2;SDS_P1;SDS_P2;PMS_P1;PMS_P2;Temp;Humidity;BMP_temperature;BMP_pressure;BME280_temperature;BME280_humidity;BME280_pressure;Samples;Min_cycle;Max_cycle;Signal;HPM_P1;HPM_P2
2023/03/26 00:00:30;;;;;;;2.70;0.50;;;8.90;74.80;;;;;;5973990;23;20049;-77
2023/03/26 00:02:55;;;;;;;2.00;0.40;;;8.90;74.80;;;;;;5983420;23;20039;-77
2023/03/26 00:05:21;;;;;;;4.22;0.90;;;8.90;74.90;;;;;;5963768;23;20041;-77
2023/03/26 00:07:47;;;;;;;4.65;0.98;;;8.80;74.80;;;;;;5962462;23;20058;-76
2023/03/26 00:10:14;;;;;;;5.60;0.88;;;8.80;74.80;;;;;;5962490;23;20477;-77
2023/03/26 00:12:39;;;;;;;5.13;0.80;;;8.80;74.90;;;;;;5985511;23;21521;-77
2023/03/26 00:15:06;;;;;;;5.03;0.80;;;8.80;74.90;;;;;;5963831;23;20669;-78
2023/03/26 00:17:32;;;;;;;5.70;0.80;;;8.80;75.80;;;;;;5964972;23;20033;-77
2023/03/26 00:19:58;;;;;;;5.75;0.70;;;8.80;75.00;;;;;;5982071;23;20026;-78
2023/03/26 00:22:24;;;;;;;7.65;1.00;;;8.80;75.10;;;;;;5964776;23;20018;-77
2023/03/26 00:24:50;;;;;;;1.98;0.57;;;8.80;75.10;;;;;;5982613;23;20064;-77
2023/03/26 00:27:16;;;;;;;4.85;0.80;;;8.80;75.20;;;;;;5962646;23;20022;-78
2023/03/26 00:29:41;;;;;;;7.82;0.95;;;8.80;75.30;;;;;;5940377;23;20731;-78
2023/03/26 00:32:07;;;;;;;6.57;0.90;;;8.70;75.30;;;;;;5940442;23;20022;-77
2023/03/26 00:34:33;;;;;;;7.57;0.93;;;8.70;75.30;;;;;;5939759;23;20030;-77
2023/03/26 00:37:01;;;;;;;5.18;0.90;;;8.70;75.40;;;;;;5963365;23;20034;-77
2023/03/26 00:39:28;;;;;;;4.03;0.70;;;8.70;75.40;;;;;;5985300;23;20022;-78
2023/03/26 00:41:53;;;;;;;5.65;1.00;;;8.70;75.50;;;;;;5981664;23;20488;-78
2023/03/26 00:44:19;;;;;;;6.50;0.85;;;8.70;75.60;;;;;;5985055;23;20056;-78
2023/03/26 00:46:45;;;;;;;3.80;0.70;;;8.70;75.60;;;;;;5938661;23;20073;-78
2023/03/26 00:49:13;;;;;;;5.95;0.80;;;8.70;75.70;;;;;;5983939;23;20026;-77
2023/03/26 00:51:42;;;;;;;5.15;1.10;;;8.70;75.70;;;;;;5982163;23;20037;-78
2023/03/26 00:54:10;;;;;;;5.55;0.70;;;8.70;75.80;;;;;;5964273;23;20044;-77
2023/03/26 00:56:37;;;;;;;3.10;0.80;;;8.70;75.90;;;;;;5938911;23;20030;-78
2023/03/26 00:59:02;;;;;;;4.90;0.90;;;8.60;75.90;;;;;;5961995;23;20029;-78
2023/03/26 01:01:29;;;;;;;4.25;0.98;;;8.60;75.90;;;;;;5961152;23;20060;-77
2023/03/26 01:03:57;;;;;;;7.25;1.42;;;8.60;75.90;;;;;;5962130;23;20450;-78
2023/03/26 01:06:34;;;;;;;5.38;0.80;;;8.60;76.00;;;;;;5981676;23;20022;-78
2023/03/26 01:09:14;;;;;;;7.75;1.52;;;8.60;76.30;;;;;;5937107;23;20026;-78
2023/03/26 01:11:40;;;;;;;7.45;0.88;;;8.60;76.30;;;;;;5958730;23;20026;-78
2023/03/26 01:14:16;;;;;;;4.78;1.02;;;8.60;76.30;;;;;;5961462;23;20028;-77
2023/03/26 01:16:48;;;;;;;7.00;1.02;;;8.60;76.30;;;;;;5983297;23;20092;-78
2023/03/26 01:19:21;;;;;;;8.05;1.25;;;8.50;76.30;;;;;;5961874;23;20637;-78
2023/03/26 01:21:47;;;;;;;7.30;1.20;;;8.50;76.40;;;;;;5984207;23;20037;-77
2023/03/26 01:24:12;;;;;;;1.88;0.60;;;8.50;76.40;;;;;;5983397;23;20423;-78
2023/03/26 01:26:53;;;;;;;7.10;1.88;;;8.50;76.40;;;;;;5985293;23;20117;-78
2023/03/26 01:29:31;;;;;;;8.93;1.10;;;8.50;76.70;;;;;;5961745;23;20045;-77
2023/03/26 01:32:09;;;;;;;4.15;1.00;;;8.50;76.60;;;;;;5958998;23;20128;-78
2023/03/26 01:34:53;;;;;;;5.45;0.90;;;8.50;76.70;;;;;;5957775;23;20554;-78
2023/03/26 01:37:37;;;;;;;2.85;1.00;;;8.50;76.80;;;;;;5962034;23;20117;-77
2023/03/26 01:40:22;;;;;;;4.35;1.30;;;8.50;76.80;;;;;;5960922;23;20030;-77
2023/03/26 01:42:56;;;;;;;7.75;1.10;;;8.40;76.90;;;;;;5960774;23;20050;-78
2023/03/26 01:45:25;;;;;;;4.32;1.10;;;8.40;76.70;;;;;;5981650;23;20041;-78
2023/03/26 01:47:50;;;;;;;5.35;1.20;;;8.40;76.80;;;;;;5959063;23;20033;-77
2023/03/26 01:50:16;;;;;;;6.72;1.33;;;8.40;76.90;;;;;;5938835;23;20106;-78
2023/03/26 01:52:41;;;;;;;5.90;0.93;;;8.40;77.00;;;;;;5984747;23;20025;-78
2023/03/26 01:55:10;;;;;;;3.58;0.95;;;8.40;76.90;;;;;;5958084;23;20049;-78
2023/03/26 01:57:38;;;;;;;4.85;0.90;;;8.40;77.00;;;;;;5979813;23;20029;-78
2023/03/26 02:00:18;;;;;;;4.45;0.75;;;8.30;77.10;;;;;;5957503;23;20053;-78
2023/03/26 02:02:50;;;;;;;6.00;1.10;;;8.30;77.20;;;;;;5982365;23;20125;-78
2023/03/26 02:05:30;;;;;;;5.20;0.90;;;8.30;77.20;;;;;;5982096;23;20025;-77
2023/03/26 02:08:01;;;;;;;6.35;1.08;;;8.30;77.30;;;;;;5960681;23;20026;-78
2023/03/26 02:10:32;;;;;;;7.18;1.50;;;8.30;77.30;;;;;;5961059;23;20021;-78
2023/03/26 02:12:57;;;;;;;3.60;1.05;;;8.20;77.20;;;;;;5960040;23;20026;-77
2023/03/26 02:15:23;;;;;;;3.97;0.95;;;8.20;77.30;;;;;;5960818;23;20018;-77
2023/03/26 02:17:51;;;;;;;7.72;1.33;;;8.20;77.30;;;;;;5961875;23;20026;-77
2023/03/26 02:20:17;;;;;;;5.75;1.00;;;8.20;77.40;;;;;;5984189;23;20476;-77
2023/03/26 02:22:44;;;;;;;10.25;1.50;;;8.20;77.50;;;;;;5933833;23;20522;-77
2023/03/26 02:25:19;;;;;;;6.03;1.10;;;8.10;77.50;;;;;;5959930;23;20443;-78
2023/03/26 02:27:45;;;;;;;10.10;1.25;;;8.20;77.60;;;;;;5981110;23;20121;-77
2023/03/26 02:30:25;;;;;;;6.65;1.08;;;8.10;77.60;;;;;;5961393;23;20702;-78
2023/03/26 02:32:52;;;;;;;6.57;1.40;;;8.10;77.70;;;;;;5938808;23;20060;-77
2023/03/26 02:35:18;;;;;;;5.53;0.90;;;8.10;77.60;;;;;;5983034;23;20030;-77
2023/03/26 02:37:45;;;;;;;6.05;1.25;;;8.10;77.70;;;;;;5981674;23;20033;-77
2023/03/26 02:40:11;;;;;;;8.90;1.10;;;8.00;77.60;;;;;;5959753;23;20115;-77
2023/03/26 02:42:37;;;;;;;5.22;1.08;;;8.00;77.70;;;;;;5983553;23;20026;-77
2023/03/26 02:45:04;;;;;;;4.30;1.27;;;8.00;77.80;;;;;;5960581;23;20484;-78
2023/03/26 02:47:30;;;;;;;7.90;1.00;;;8.00;77.80;;;;;;5982855;23;20064;-77
2023/03/26 02:49:55;;;;;;;6.13;1.10;;;7.90;77.80;;;;;;5959975;23;20501;-77
2023/03/26 02:52:21;;;;;;;4.93;1.20;;;7.90;77.80;;;;;;5960945;23;20030;-78
2023/03/26 02:54:46;;;;;;;7.75;0.90;;;7.90;78.60;;;;;;5932044;23;20109;-78
2023/03/26 02:57:12;;;;;;;4.80;0.88;;;7.80;77.80;;;;;;5979356;23;20124;-77
2023/03/26 02:59:37;;;;;;;3.25;1.20;;;7.80;77.90;;;;;;5961596;23;20022;-78
2023/03/26 03:02:03;;;;;;;5.30;0.95;;;7.80;78.00;;;;;;5958396;23;20529;-78
2023/03/26 03:04:29;;;;;;;3.08;1.75;;;7.70;78.00;;;;;;5982355;23;20106;-78
2023/03/26 03:06:56;;;;;;;6.53;1.02;;;7.70;78.00;;;;;;5982441;23;20072;-77
2023/03/26 03:09:23;;;;;;;2.90;0.80;;;7.70;78.10;;;;;;5962603;23;20102;-78
2023/03/26 03:11:49;;;;;;;4.65;0.98;;;7.70;78.20;;;;;;5958487;23;20026;-77
2023/03/26 03:14:15;;;;;;;4.15;1.10;;;7.60;78.20;;;;;;5959207;23;20036;-77
2023/03/26 03:16:40;;;;;;;5.30;0.88;;;7.60;78.20;;;;;;5984872;23;20032;-78
2023/03/26 03:19:06;;;;;;;5.45;1.40;;;7.60;78.30;;;;;;5961808;23;20041;-77
2023/03/26 03:21:31;;;;;;;4.28;0.85;;;7.50;78.40;;;;;;5937857;23;20076;-78
2023/03/26 03:23:57;;;;;;;4.95;0.95;;;7.50;78.40;;;;;;5960102;23;20026;-78
2023/03/26 03:26:26;;;;;;;8.70;1.17;;;7.50;78.50;;;;;;5962186;23;20014;-78
2023/03/26 03:28:56;;;;;;;4.47;1.20;;;7.50;78.50;;;;;;5960800;23;20026;-78
2023/03/26 03:31:23;;;;;;;9.13;1.00;;;7.40;78.50;;;;;;5962813;23;20026;-77
2023/03/26 03:33:49;;;;;;;4.35;0.90;;;7.40;78.60;;;;;;5986259;23;20113;-76
2023/03/26 03:36:17;;;;;;;4.05;0.88;;;7.40;78.70;;;;;;5964134;23;20109;-78
2023/03/26 03:38:43;;;;;;;5.20;0.90;;;7.30;78.80;;;;;;5985057;23;20093;-78
2023/03/26 03:41:09;;;;;;;7.43;1.00;;;7.30;78.80;;;;;;5962234;23;20064;-78
2023/03/26 03:43:34;;;;;;;8.20;1.25;;;7.30;78.90;;;;;;5988893;23;20033;-76
2023/03/26 03:46:00;;;;;;;6.03;0.90;;;7.30;79.00;;;;;;5986869;23;20042;-77
2023/03/26 03:48:26;;;;;;;5.38;0.90;;;7.20;79.00;;;;;;5963168;23;20105;-78
2023/03/26 03:50:52;;;;;;;3.80;0.90;;;7.20;79.10;;;;;;5941119;23;20140;-77
2023/03/26 03:53:18;;;;;;;2.95;1.00;;;7.20;79.10;;;;;;5989964;23;20018;-77
2023/03/26 03:55:51;;;;;;;6.45;0.90;;;7.20;79.10;;;;;;5962987;23;20028;-77
2023/03/26 03:58:20;;;;;;;4.57;1.30;;;7.20;79.10;;;;;;5949345;23;20025;-78
2023/03/26 04:00:49;;;;;;;3.15;1.02;;;7.10;79.10;;;;;;5986106;23;20072;-77
2023/03/26 04:03:15;;;;;;;3.92;1.00;;;7.10;79.20;;;;;;5963811;23;20018;-78
2023/03/26 04:05:40;;;;;;;5.00;1.05;;;7.10;79.20;;;;;;5962362;23;20018;-77
2023/03/26 04:08:06;;;;;;;2.72;0.90;;;7.00;79.20;;;;;;5962539;23;20409;-77
2023/03/26 04:10:31;;;;;;;6.07;1.10;;;7.00;79.20;;;;;;5985970;23;20559;-77
2023/03/26 04:12:57;;;;;;;5.63;1.15;;;7.00;79.20;;;;;;5965401;23;20018;-78
2023/03/26 04:15:22;;;;;;;5.55;1.60;;;7.00;79.20;;;;;;5986357;23;20069;-77
2023/03/26 04:17:48;;;;;;;5.28;0.95;;;6.90;79.30;;;;;;5986163;23;20170;-78
2023/03/26 04:20:14;;;;;;;4.10;0.88;;;6.90;79.30;;;;;;5985117;23;20635;-77
2023/03/26 04:22:41;;;;;;;4.00;0.80;;;6.90;79.30;;;;;;5937444;23;20065;-77
2023/03/26 04:25:08;;;;;;;4.35;1.00;;;6.80;79.30;;;;;;5965630;23;20048;-78
2023/03/26 04:27:35;;;;;;;4.80;1.35;;;6.80;79.30;;;;;;5964341;23;20018;-77
2023/03/26 04:30:01;;;;;;;4.90;1.58;;;6.80;79.50;;;;;;5963680;23;20034;-77
2023/03/26 04:32:28;;;;;;;3.22;1.27;;;6.70;79.40;;;;;;5986321;23;20025;-80
2023/03/26 04:34:55;;;;;;;5.07;0.98;;;6.70;79.50;;;;;;5917173;23;20018;-78
2023/03/26 04:37:31;;;;;;;2.35;0.98;;;6.70;79.60;;;;;;5985117;23;20444;-78
2023/03/26 04:39:56;;;;;;;4.68;1.10;;;6.70;79.70;;;;;;5983423;23;20496;-78
2023/03/26 04:42:22;;;;;;;3.15;0.82;;;6.70;79.70;;;;;;5962952;23;20026;-78
2023/03/26 04:44:49;;;;;;;2.25;1.00;;;6.70;79.70;;;;;;5962947;23;20062;-78
2023/03/26 04:47:16;;;;;;;6.32;1.10;;;6.60;79.70;;;;;;5984443;23;20033;-78
2023/03/26 04:49:42;;;;;;;5.05;1.13;;;6.60;79.80;;;;;;5961090;23;20026;-78
2023/03/26 04:52:09;;;;;;;8.93;1.45;;;6.60;79.90;;;;;;5963584;23;20037;-77
2023/03/26 04:54:35;;;;;;;2.45;1.27;;;6.60;80.00;;;;;;5986172;23;20018;-77
2023/03/26 04:57:06;;;;;;;5.70;1.63;;;6.50;79.90;;;;;;5966462;23;20117;-78
2023/03/26 04:59:36;;;;;;;;;;;6.50;80.00;;;;;;5963700;23;20018;-77
2023/03/26 05:02:02;;;;;;;4.97;1.30;;;6.50;80.00;;;;;;5983847;23;19924;-77
2023/03/26 05:04:28;;;;;;;2.67;1.00;;;6.50;80.00;;;;;;5960464;23;20756;-78
2023/03/26 05:06:55;;;;;;;3.65;0.80;;;6.50;80.00;;;;;;5983249;23;20030;-78
2023/03/26 05:09:21;;;;;;;4.03;1.40;;;6.40;80.20;;;;;;5986059;23;20061;-78
2023/03/26 05:11:47;;;;;;;4.20;1.15;;;6.50;80.40;;;;;;5963152;23;20027;-78
2023/03/26 05:14:12;;;;;;;4.43;0.95;;;6.40;80.50;;;;;;5962844;23;20104;-78
2023/03/26 05:16:38;;;;;;;5.03;1.08;;;6.40;80.60;;;;;;5962229;23;20765;-79
2023/03/26 05:19:04;;;;;;;7.50;1.30;;;6.40;80.80;;;;;;5962050;23;20382;-77
2023/03/26 05:21:29;;;;;;;3.45;1.20;;;6.50;81.00;;;;;;5967723;23;20424;-78
2023/03/26 05:23:55;;;;;;;3.80;1.27;;;6.40;81.10;;;;;;5984043;23;20124;-77
2023/03/26 05:26:20;;;;;;;4.78;1.00;;;6.40;81.10;;;;;;5961569;23;20661;-78
2023/03/26 05:28:46;;;;;;;7.35;1.35;;;6.40;81.10;;;;;;5981653;23;20032;-78
2023/03/26 05:31:11;;;;;;;3.42;0.90;;;6.40;81.20;;;;;;5962989;23;20036;-77
2023/03/26 05:33:37;;;;;;;5.72;1.27;;;6.40;81.20;;;;;;5961514;23;20572;-78
2023/03/26 05:36:12;;;;;;;4.35;1.10;;;6.50;81.30;;;;;;5962480;23;20026;-78
2023/03/26 05:38:37;;;;;;;6.47;1.30;;;6.50;81.50;;;;;;5934280;23;20041;-77
2023/03/26 05:41:05;;;;;;;3.45;1.20;;;6.50;81.50;;;;;;5959857;23;20022;-78
2023/03/26 05:43:30;;;;;;;5.95;1.20;;;6.50;81.60;;;;;;5962674;23;20026;-80
2023/03/26 05:45:56;;;;;;;7.97;1.17;;;6.50;81.70;;;;;;5962246;23;20117;-77
2023/03/26 05:48:21;;;;;;;7.57;1.27;;;6.50;81.80;;;;;;5964014;23;20049;-77
2023/03/26 05:50:51;;;;;;;4.28;1.30;;;6.50;81.80;;;;;;5961032;23;20473;-77
2023/03/26 05:53:17;;;;;;;8.98;1.38;;;6.60;81.90;;;;;;5961689;23;20029;-77
2023/03/26 05:55:44;;;;;;;4.90;1.42;;;6.60;81.90;;;;;;5983698;23;20045;-77
2023/03/26 05:58:11;;;;;;;4.38;1.35;;;6.60;82.00;;;;;;5961749;23;20034;-78
2023/03/26 06:00:37;;;;;;;6.40;1.60;;;6.60;82.00;;;;;;5961608;23;20528;-78
2023/03/26 06:03:04;;;;;;;5.20;1.45;;;6.60;82.20;;;;;;5984109;23;20748;-78
2023/03/26 06:05:36;;;;;;;9.70;1.50;;;6.60;82.20;;;;;;5983638;23;20536;-78
2023/03/26 06:08:02;;;;;;;4.70;1.50;;;6.70;82.40;;;;;;5984813;23;20081;-78
2023/03/26 06:10:27;;;;;;;4.18;1.80;;;6.70;82.30;;;;;;5929885;23;20021;-77
2023/03/26 06:12:53;;;;;;;4.20;1.58;;;6.70;82.30;;;;;;5965202;23;20549;-78
2023/03/26 06:15:18;;;;;;;6.90;1.52;;;6.70;82.40;;;;;;5963774;23;20078;-78
2023/03/26 06:17:44;;;;;;;6.40;1.73;;;6.70;82.60;;;;;;5964296;23;20109;-78
2023/03/26 06:20:11;;;;;;;5.20;1.48;;;6.70;82.70;;;;;;5960412;23;20528;-77
2023/03/26 06:22:36;;;;;;;5.43;2.42;;;6.80;82.80;;;;;;5936594;23;20037;-77
2023/03/26 06:25:02;;;;;;;4.35;1.67;;;6.80;83.00;;;;;;5961931;23;20026;-78
2023/03/26 06:27:27;;;;;;;6.78;1.85;;;6.80;83.00;;;;;;5985849;23;20026;-78
2023/03/26 06:29:53;;;;;;;5.22;1.60;;;6.80;83.10;;;;;;5962915;23;20022;-78
2023/03/26 06:32:19;;;;;;;5.60;1.30;;;6.90;83.20;;;;;;5981978;23;20392;-77
2023/03/26 06:34:44;;;;;;;4.65;1.33;;;6.90;84.10;;;;;;5984026;23;20472;-77
2023/03/26 06:37:10;;;;;;;5.65;1.13;;;7.00;83.40;;;;;;5961253;23;20073;-78
2023/03/26 06:39:35;;;;;;;8.10;1.48;;;7.00;83.60;;;;;;5962039;23;20030;-78
2023/03/26 06:42:01;;;;;;;4.43;1.15;;;7.10;83.60;;;;;;5963076;23;20033;-77
2023/03/26 06:44:26;;;;;;;8.27;2.42;;;7.10;83.60;;;;;;5986142;23;20041;-78
2023/03/26 06:46:52;;;;;;;4.60;1.48;;;7.10;83.70;;;;;;5962534;23;20070;-78
2023/03/26 06:49:17;;;;;;;5.85;1.52;;;7.20;83.80;;;;;;5962421;23;20437;-78
2023/03/26 06:51:45;;;;;;;11.75;1.90;;;7.20;83.80;;;;;;5960327;23;20507;-78
2023/03/26 06:54:10;;;;;;;5.15;1.48;;;7.30;83.90;;;;;;5961324;23;20026;-78
2023/03/26 06:56:36;;;;;;;4.95;1.52;;;7.30;83.90;;;;;;5963891;23;20026;-77
2023/03/26 06:59:01;;;;;;;6.88;1.50;;;7.30;83.90;;;;;;5984384;23;20040;-77
2023/03/26 07:01:27;;;;;;;8.90;2.13;;;7.40;84.00;;;;;;5962717;23;20052;-78
2023/03/26 07:03:52;;;;;;;4.28;2.22;;;7.40;84.00;;;;;;5960054;23;20034;-77
2023/03/26 07:06:18;;;;;;;7.47;1.48;;;7.50;84.10;;;;;;5962273;23;20025;-78
2023/03/26 07:08:43;;;;;;;4.53;1.40;;;7.50;84.20;;;;;;5961946;23;20022;-78
2023/03/26 07:11:09;;;;;;;7.10;2.25;;;7.60;84.20;;;;;;5963175;23;20026;-77
2023/03/26 07:13:36;;;;;;;7.57;1.52;;;7.60;84.20;;;;;;5962801;23;20160;-78
2023/03/26 07:16:01;;;;;;;5.50;1.77;;;7.70;84.40;;;;;;5984702;23;20026;-77
2023/03/26 07:18:27;;;;;;;7.65;1.90;;;7.70;84.40;;;;;;5964878;23;20018;-77
2023/03/26 07:20:53;;;;;;;7.35;1.60;;;7.80;84.40;;;;;;5963259;23;20053;-77
2023/03/26 07:23:20;;;;;;;5.10;1.38;;;7.80;84.40;;;;;;5966471;23;20041;-78
2023/03/26 07:25:47;;;;;;;7.32;2.25;;;7.90;84.50;;;;;;5984150;23;20122;-78
2023/03/26 07:28:17;;;;;;;8.18;2.03;;;7.90;84.50;;;;;;5960493;23;20080;-78
2023/03/26 07:31:17;;;;;;;4.45;1.40;;;8.00;84.60;;;;;;5958852;23;20022;-77
2023/03/26 07:34:00;;;;;;;6.83;1.53;;;8.00;85.00;;;;;;5953723;23;20454;-78
2023/03/26 07:36:32;;;;;;;6.65;1.83;;;8.10;84.70;;;;;;5961767;23;20104;-78
2023/03/26 07:39:07;;;;;;;;;;;8.10;84.50;;;;;;5958184;23;20033;-77
2023/03/26 07:41:39;;;;;;;3.95;1.58;;;8.20;84.30;;;;;;5959288;23;19961;-77
2023/03/26 07:44:43;;;;;;;7.78;1.42;;;8.20;84.00;;;;;;5962753;23;20461;-77
2023/03/26 07:47:26;;;;;;;4.00;1.30;;;8.30;84.60;;;;;;5960524;23;20528;-77
2023/03/26 07:49:53;;;;;;;5.95;1.80;;;8.30;84.50;;;;;;5983836;23;20028;-77
2023/03/26 07:52:19;;;;;;;10.45;1.90;;;8.40;84.20;;;;;;5984347;23;20361;-78
2023/03/26 07:54:45;;;;;;;6.05;1.95;;;8.40;84.20;;;;;;5963162;23;20628;-78
2023/03/26 07:57:27;;;;;;;7.10;1.67;;;8.50;84.30;;;;;;5986789;23;20033;-77
2023/03/26 08:00:00;;;;;;;6.63;2.20;;;8.50;84.40;;;;;;5928811;23;20524;-77
2023/03/26 08:02:46;;;;;;;4.68;2.33;;;8.60;84.30;;;;;;5963061;23;20022;-77
2023/03/26 08:05:24;;;;;;;8.10;1.60;;;8.60;84.50;;;;;;5958616;23;20037;-77
2023/03/26 08:08:05;;;;;;;5.28;1.70;;;8.70;84.30;;;;;;5942347;23;20022;-78
2023/03/26 08:11:00;;;;;;;4.28;1.48;;;8.70;84.40;;;;;;5969067;23;20236;-79
2023/03/26 08:13:31;;;;;;;7.10;2.00;;;8.80;84.40;;;;;;5963370;23;20076;-78
2023/03/26 08:16:06;;;;;;;5.47;2.00;;;8.80;84.50;;;;;;5985837;23;20038;-78
2023/03/26 08:18:55;;;;;;;4.82;1.42;;;8.90;84.20;;;;;;5962868;23;20246;-78
2023/03/26 08:21:30;;;;;;;4.10;1.40;;;8.90;84.40;;;;;;5984046;23;20133;-77
2023/03/26 08:24:05;;;;;;;9.52;3.72;;;8.90;84.20;;;;;;5960314;23;20025;-78
2023/03/26 08:26:47;;;;;;;6.97;2.40;;;9.00;84.20;;;;;;5963254;23;20540;-77
2023/03/26 08:29:28;;;;;;;7.30;2.08;;;9.00;84.30;;;;;;5983101;23;20025;-78
2023/03/26 08:31:56;;;;;;;3.15;1.20;;;9.00;84.30;;;;;;5958687;23;20018;-78
2023/03/26 08:34:21;;;;;;;5.55;2.30;;;9.00;84.00;;;;;;5983754;23;20026;-78
2023/03/26 08:36:47;;;;;;;15.20;6.63;;;9.10;84.00;;;;;;5961631;23;20053;-78
2023/03/26 08:39:13;;;;;;;6.22;1.80;;;9.10;84.00;;;;;;5985131;23;20075;-78
2023/03/26 08:41:54;;;;;;;7.40;2.35;;;9.10;84.00;;;;;;5962039;23;20026;-78
2023/03/26 08:44:34;;;;;;;8.07;2.63;;;9.10;83.90;;;;;;5964662;23;20026;-79
2023/03/26 08:47:30;;;;;;;7.85;1.90;;;9.20;84.10;;;;;;5936682;23;20077;-78
2023/03/26 08:50:07;;;;;;;6.88;2.40;;;9.10;84.00;;;;;;5960621;23;20076;-78
2023/03/26 08:52:37;;;;;;;9.55;3.28;;;9.20;84.00;;;;;;5960452;23;20025;-78
2023/03/26 08:55:21;;;;;;;10.30;3.63;;;9.20;83.90;;;;;;5961604;23;20463;-78
2023/03/26 08:58:28;;;;;;;10.32;3.08;;;9.20;83.90;;;;;;5960918;23;20112;-78
2023/03/26 09:01:20;;;;;;;8.40;3.03;;;9.20;84.20;;;;;;5959679;23;20085;-78
2023/03/26 09:03:46;;;;;;;8.15;3.33;;;9.30;84.30;;;;;;5961524;23;20048;-78
2023/03/26 09:06:36;;;;;;;7.80;2.30;;;9.30;83.90;;;;;;5964992;23;20034;-78
2023/03/26 09:09:36;;;;;;;11.80;5.10;;;9.30;84.10;;;;;;5967057;23;20037;-78
2023/03/26 09:12:32;;;;;;;7.13;2.72;;;9.30;84.30;;;;;;5963916;23;20022;-78
2023/03/26 09:15:21;;;;;;;4.85;2.38;;;9.30;84.30;;;;;;5956172;23;20037;-78
2023/03/26 09:18:16;;;;;;;5.80;1.65;;;9.30;84.10;;;;;;5963033;23;20034;-78
2023/03/26 09:21:21;;;;;;;3.08;1.55;;;9.30;84.30;;;;;;5984043;23;20026;-78
2023/03/26 09:23:52;;;;;;;3.33;1.58;;;9.40;84.40;;;;;;5915808;23;20037;-78
2023/03/26 09:26:21;;;;;;;;;;;9.30;84.00;;;;;;5963536;23;20033;-78
2023/03/26 09:29:04;;;;;;;6.43;2.13;;;9.30;83.90;;;;;;5962686;23;20134;-78
2023/03/26 09:32:08;;;;;;;3.97;1.30;;;9.30;83.80;;;;;;5961092;23;20018;-78
2023/03/26 09:34:57;;;;;;;4.65;1.42;;;9.30;84.00;;;;;;5964697;23;20021;-78
2023/03/26 09:37:25;;;;;;;3.85;1.40;;;9.40;84.80;;;;;;5967620;23;20033;-78
2023/03/26 09:39:53;;;;;;;7.32;1.27;;;9.40;83.90;;;;;;5961571;23;20026;-79
2023/03/26 09:42:23;;;;;;;6.63;1.77;;;9.40;83.90;;;;;;5968168;23;20022;-77
2023/03/26 09:44:58;;;;;;;4.65;1.58;;;9.40;84.00;;;;;;5962016;23;20022;-77
2023/03/26 09:47:39;;;;;;;5.65;1.83;;;9.40;84.10;;;;;;5985062;23;20034;-79
2023/03/26 09:50:20;;;;;;;9.43;2.47;;;9.50;84.10;;;;;;5939319;23;20037;-78
2023/03/26 09:53:02;;;;;;;7.55;2.72;;;9.40;84.00;;;;;;5963870;23;20052;-77
2023/03/26 09:55:51;;;;;;;4.90;1.80;;;9.50;84.10;;;;;;5955762;23;20158;-78
2023/03/26 09:58:35;;;;;;;4.32;1.75;;;9.50;84.30;;;;;;5962746;23;20049;-78
2023/03/26 10:01:28;;;;;;;9.30;3.38;;;9.50;84.20;;;;;;5981848;23;20101;-77
2023/03/26 10:03:59;;;;;;;6.63;2.60;;;9.60;84.20;;;;;;5942623;23;20037;-78
2023/03/26 10:06:51;;;;;;;6.68;1.83;;;9.60;84.10;;;;;;5982969;23;20022;-78
2023/03/26 10:09:37;;;;;;;5.95;2.05;;;9.60;84.20;;;;;;5961236;23;20029;-78
2023/03/26 10:12:41;;;;;;;9.40;2.40;;;9.60;84.00;;;;;;5984510;23;20029;-77
2023/03/26 10:15:23;;;;;;;4.85;1.77;;;9.60;83.90;;;;;;5939594;24;20480;-77
2023/03/26 10:18:10;;;;;;;8.52;2.58;;;9.70;84.00;;;;;;5903942;24;20118;-76
2023/03/26 10:20:47;;;;;;;8.55;3.40;;;9.60;83.90;;;;;;5935066;24;20496;-77
2023/03/26 10:23:44;;;;;;;10.40;3.10;;;9.60;84.00;;;;;;5934005;23;20038;-77
2023/03/26 10:26:41;;;;;;;6.75;1.88;;;9.70;84.10;;;;;;5932548;23;20026;-78
2023/03/26 10:29:44;;;;;;;7.15;2.25;;;9.70;84.10;;;;;;5909678;24;20095;-78
2023/03/26 10:32:12;;;;;;;3.55;1.40;;;9.70;83.90;;;;;;5819614;24;20025;-78
2023/03/26 10:35:01;;;;;;;7.63;3.55;;;9.80;83.90;;;;;;5917334;24;20026;-78
2023/03/26 10:38:01;;;;;;;5.93;2.22;;;9.90;84.30;;;;;;5933625;23;20370;-77
2023/03/26 10:40:51;;;;;;;10.77;3.65;;;10.00;84.10;;;;;;5907758;24;20098;-78
2023/03/26 10:43:39;;;;;;;5.53;2.80;;;10.00;83.80;;;;;;5890977;24;20030;-78
2023/03/26 10:46:42;;;;;;;5.00;1.27;;;10.10;83.80;;;;;;5945376;23;20030;-77
2023/03/26 10:49:13;;;;;;;3.92;1.25;;;10.10;83.80;;;;;;5980913;23;20408;-78
2023/03/26 10:51:52;;;;;;;6.68;2.63;;;10.10;83.60;;;;;;5958198;23;20022;-78
2023/03/26 10:54:45;;;;;;;4.72;2.25;;;10.10;83.60;;;;;;5961856;23;20036;-78
2023/03/26 10:57:37;;;;;;;5.05;2.10;;;10.10;83.50;;;;;;5958626;23;20156;-77
2023/03/26 11:00:14;;;;;;;4.13;1.05;;;10.20;83.60;;;;;;5979192;23;20026;-78
2023/03/26 11:02:53;;;;;;;4.68;2.17;;;10.20;83.30;;;;;;5958056;23;20681;-77
2023/03/26 11:06:03;;;;;;;5.57;1.52;;;10.20;83.30;;;;;;5961184;23;20037;-77
2023/03/26 11:08:50;;;;;;;4.07;1.38;;;10.20;83.20;;;;;;5954886;23;20085;-78
2023/03/26 11:11:35;;;;;;;3.20;1.50;;;10.20;84.00;;;;;;5962642;23;20022;-78
2023/03/26 11:14:09;;;;;;;1.63;1.02;;;10.30;83.30;;;;;;5939293;23;20437;-78
2023/03/26 11:17:10;;;;;;;2.53;0.95;;;10.30;83.20;;;;;;5964791;23;20125;-78
2023/03/26 11:19:44;;;;;;;4.38;1.60;;;10.30;83.10;;;;;;5943557;23;20029;-79
2023/03/26 11:22:22;;;;;;;5.80;1.50;;;10.40;83.20;;;;;;5949722;23;20112;-78
2023/03/26 11:25:02;;;;;;;7.15;2.30;;;10.50;83.30;;;;;;5957910;23;20030;-79
2023/03/26 11:27:39;;;;;;;5.22;1.10;;;10.60;83.40;;;;;;5958324;23;20030;-78
2023/03/26 11:30:27;;;;;;;3.67;1.60;;;10.70;83.20;;;;;;5960625;23;20022;-79
2023/03/26 11:32:57;;;;;;;3.65;2.10;;;10.80;83.30;;;;;;5963102;23;20033;-78
2023/03/26 11:35:45;;;;;;;3.95;1.60;;;10.90;82.80;;;;;;5962764;23;20104;-78
2023/03/26 11:38:37;;;;;;;19.90;12.60;;;10.90;82.50;;;;;;5959552;23;20034;-79
2023/03/26 11:41:09;;;;;;;6.03;4.35;;;10.90;82.10;;;;;;5961584;23;20550;-78
2023/03/26 11:43:35;;;;;;;8.15;4.10;;;10.90;82.10;;;;;;5983221;23;20033;-78
2023/03/26 11:46:06;;;;;;;51.95;26.73;;;11.00;82.10;;;;;;5983725;23;20114;-78
2023/03/26 11:48:43;;;;;;;27.88;16.10;;;11.00;82.10;;;;;;5938924;23;20022;-78
2023/03/26 11:51:16;;;;;;;26.13;14.82;;;11.00;81.90;;;;;;5937851;23;20053;-79
2023/03/26 11:53:45;;;;;;;111.20;57.38;;;11.10;81.90;;;;;;5957826;23;20712;-78
2023/03/26 11:56:28;;;;;;;102.68;57.90;;;11.20;82.00;;;;;;5958721;23;20033;-78
2023/03/26 11:59:14;;;;;;;23.33;13.68;;;11.50;82.30;;;;;;5981500;23;20018;-78
2023/03/26 12:01:50;;;;;;;41.15;21.52;;;11.70;82.10;;;;;;5961151;23;20045;-78
2023/03/26 12:04:18;;;;;;;41.38;22.40;;;12.00;81.90;;;;;;5940495;23;20018;-78
2023/03/26 12:06:55;;;;;;;16.13;8.23;;;12.20;81.40;;;;;;5940471;23;20018;-79
2023/03/26 12:09:21;;;;;;;14.45;7.60;;;12.40;81.10;;;;;;5961672;23;20022;-78
2023/03/26 12:11:46;;;;;;;57.30;24.65;;;12.70;80.90;;;;;;5963589;23;20080;-78
2023/03/26 12:14:17;;;;;;;45.63;21.40;;;12.90;80.50;;;;;;5965126;23;20037;-79
2023/03/26 12:17:00;;;;;;;12.82;6.60;;;13.10;80.10;;;;;;5961583;23;20029;-78
2023/03/26 12:19:27;;;;;;;21.50;10.35;;;13.30;79.60;;;;;;5986291;23;20026;-78
2023/03/26 12:21:53;;;;;;;17.60;10.02;;;13.40;79.40;;;;;;5964877;23;20025;-78
2023/03/26 12:24:29;;;;;;;8.13;3.17;;;13.60;79.20;;;;;;5910045;23;20018;-79
2023/03/26 12:27:08;;;;;;;21.25;11.30;;;13.80;78.80;;;;;;5951193;23;20026;-78
2023/03/26 12:29:33;;;;;;;33.15;16.50;;;13.90;78.40;;;;;;5966744;23;20022;-79
2023/03/26 12:32:03;;;;;;;23.42;10.70;;;14.00;78.10;;;;;;5939750;23;20018;-79
2023/03/26 12:34:33;;;;;;;24.13;10.25;;;14.10;77.60;;;;;;5967322;23;20110;-78
2023/03/26 12:36:59;;;;;;;83.18;39.25;;;14.00;77.10;;;;;;5962626;23;20749;-78
2023/03/26 12:39:38;;;;;;;31.95;16.60;;;14.00;76.70;;;;;;5989547;23;20100;-79
2023/03/26 12:42:06;;;;;;;42.45;21.80;;;14.00;76.50;;;;;;5962979;23;20122;-78
2023/03/26 12:44:33;;;;;;;33.78;19.02;;;13.90;77.20;;;;;;5985084;23;20037;-79
2023/03/26 12:47:21;;;;;;;16.88;11.05;;;13.90;76.40;;;;;;5966067;23;20036;-79
2023/03/26 12:49:48;;;;;;;6.47;4.22;;;13.90;76.10;;;;;;5962525;23;20030;-79
2023/03/26 12:52:37;;;;;;;6.03;2.35;;;13.90;76.50;;;;;;5984141;23;20026;-79
2023/03/26 12:55:14;;;;;;;4.32;1.23;;;13.90;76.30;;;;;;5980690;23;20032;-79
2023/03/26 12:57:53;;;;;;;12.27;8.93;;;13.90;76.20;;;;;;5983906;23;20112;-79
2023/03/26 13:00:40;;;;;;;3.40;3.10;;;13.80;76.10;;;;;;5965736;23;20077;-79
2023/03/26 13:03:40;;;;;;;5.90;2.53;;;13.80;76.20;;;;;;5963728;23;20022;-79
2023/03/26 13:06:29;;;;;;;4.63;2.20;;;13.80;76.20;;;;;;5964404;23;20072;-79
2023/03/26 13:09:16;;;;;;;3.33;2.00;;;13.80;77.10;;;;;;5982647;23;20042;-79
2023/03/26 13:12:09;;;;;;;2.33;1.48;;;13.80;76.40;;;;;;5964675;23;20057;-79
2023/03/26 13:14:41;;;;;;;5.43;2.22;;;13.90;76.20;;;;;;5962285;23;20040;-80
2023/03/26 13:17:35;;;;;;;5.18;3.20;;;14.00;76.20;;;;;;5962803;23;20025;-80
2023/03/26 13:20:23;;;;;;;4.80;2.10;;;14.00;75.70;;;;;;5981962;23;20053;-79
2023/03/26 13:23:07;;;;;;;2.80;1.27;;;14.10;75.90;;;;;;5980334;23;20070;-80